sensor_id;sensor_type;location;lat;lon;timestamp;P1;durP1;ratioP1;P2;durP2;ratioP2
55003;SDS011;40900;52.710;6.438;2023-02-24T00:01:44;16.63;;;3.85;;
55003;SDS011;40900;52.710;6.438;2023-02-24T00:04:15;14.65;;;3.80;;
55003;SDS011;40900;52.710;6.438;2023-02-24T00:06:42;18.20;;;3.83;;
55003;SDS011;40900;52.710;6.438;2023-02-24T00:09:10;15.27;;;3.85;;
55003;SDS011;40900;52.710;6.438;2023-02-24T00:11:45;13.00;;;3.30;;
55003;SDS011;40900;52.710;6.438;2023-02-24T00:14:13;15.07;;;4.05;;
55003;SDS011;40900;52.710;6.438;2023-02-24T00:16:41;20.23;;;3.60;;
55003;SDS011;40900;52.710;6.438;2023-02-24T00:19:09;16.48;;;3.25;;
55003;SDS011;40900;52.710;6.438;2023-02-24T00:21:37;14.00;;;3.30;;
55003;SDS011;40900;52.710;6.438;2023-02-24T00:24:03;12.80;;;3.75;;
55003;SDS011;40900;52.710;6.438;2023-02-24T00:26:30;14.98;;;3.30;;
55003;SDS011;40900;52.710;6.438;2023-02-24T00:28:56;14.43;;;3.13;;
55003;SDS011;40900;52.710;6.438;2023-02-24T00:31:24;16.77;;;3.15;;
55003;SDS011;40900;52.710;6.438;2023-02-24T00:33:55;13.45;;;3.00;;
55003;SDS011;40900;52.710;6.438;2023-02-24T00:36:22;13.18;;;2.92;;
55003;SDS011;40900;52.710;6.438;2023-02-24T00:38:52;13.82;;;3.15;;
55003;SDS011;40900;52.710;6.438;2023-02-24T00:41:21;17.33;;;3.40;;
55003;SDS011;40900;52.710;6.438;2023-02-24T00:43:49;11.18;;;2.65;;
55003;SDS011;40900;52.710;6.438;2023-02-24T00:46:16;16.05;;;3.13;;
55003;SDS011;40900;52.710;6.438;2023-02-24T00:48:45;20.25;;;3.13;;
55003;SDS011;40900;52.710;6.438;2023-02-24T00:51:16;15.40;;;2.78;;
55003;SDS011;40900;52.710;6.438;2023-02-24T00:53:53;12.40;;;2.78;;
55003;SDS011;40900;52.710;6.438;2023-02-24T00:56:23;10.25;;;2.45;;
55003;SDS011;40900;52.710;6.438;2023-02-24T00:58:54;14.40;;;2.70;;
55003;SDS011;40900;52.710;6.438;2023-02-24T01:01:26;13.73;;;2.33;;
55003;SDS011;40900;52.710;6.438;2023-02-24T01:03:56;12.13;;;2.80;;
55003;SDS011;40900;52.710;6.438;2023-02-24T01:06:25;11.23;;;2.45;;
55003;SDS011;40900;52.710;6.438;2023-02-24T01:08:54;10.23;;;1.80;;
55003;SDS011;40900;52.710;6.438;2023-02-24T01:11:25;9.93;;;2.30;;
55003;SDS011;40900;52.710;6.438;2023-02-24T01:14:12;12.07;;;2.38;;
55003;SDS011;40900;52.710;6.438;2023-02-24T01:16:40;9.95;;;2.10;;
55003;SDS011;40900;52.710;6.438;2023-02-24T01:19:09;9.95;;;2.20;;
55003;SDS011;40900;52.710;6.438;2023-02-24T01:21:35;9.15;;;1.98;;
55003;SDS011;40900;52.710;6.438;2023-02-24T01:24:01;9.95;;;2.28;;
55003;SDS011;40900;52.710;6.438;2023-02-24T01:26:27;8.63;;;2.55;;
55003;SDS011;40900;52.710;6.438;2023-02-24T01:28:54;17.27;;;2.50;;
55003;SDS011;40900;52.710;6.438;2023-02-24T01:31:20;18.77;;;2.42;;
55003;SDS011;40900;52.710;6.438;2023-02-24T01:33:47;10.73;;;2.50;;
55003;SDS011;40900;52.710;6.438;2023-02-24T01:36:18;13.15;;;2.55;;
55003;SDS011;40900;52.710;6.438;2023-02-24T01:38:49;13.75;;;2.53;;
55003;SDS011;40900;52.710;6.438;2023-02-24T01:41:25;8.88;;;2.35;;
55003;SDS011;40900;52.710;6.438;2023-02-24T01:43:57;8.45;;;2.25;;
55003;SDS011;40900;52.710;6.438;2023-02-24T01:46:35;11.70;;;2.65;;
55003;SDS011;40900;52.710;6.438;2023-02-24T01:49:07;9.30;;;2.65;;
55003;SDS011;40900;52.710;6.438;2023-02-24T01:51:57;10.48;;;2.20;;
55003;SDS011;40900;52.710;6.438;2023-02-24T01:54:38;9.90;;;2.10;;
55003;SDS011;40900;52.710;6.438;2023-02-24T01:57:10;13.57;;;2.42;;
55003;SDS011;40900;52.710;6.438;2023-02-24T01:59:40;9.13;;;2.20;;
55003;SDS011;40900;52.710;6.438;2023-02-24T02:02:08;13.60;;;2.40;;
55003;SDS011;40900;52.710;6.438;2023-02-24T02:07:19;8.98;;;1.98;;
55003;SDS011;40900;52.710;6.438;2023-02-24T02:09:47;9.48;;;2.25;;
55003;SDS011;40900;52.710;6.438;2023-02-24T02:12:14;13.50;;;2.88;;
55003;SDS011;40900;52.710;6.438;2023-02-24T02:14:42;10.95;;;1.70;;
55003;SDS011;40900;52.710;6.438;2023-02-24T02:17:25;9.95;;;2.22;;
55003;SDS011;40900;52.710;6.438;2023-02-24T02:25:58;12.25;;;2.45;;
55003;SDS011;40900;52.710;6.438;2023-02-24T02:34:17;9.25;;;2.40;;
55003;SDS011;40900;52.710;6.438;2023-02-24T02:36:56;11.45;;;2.08;;
55003;SDS011;40900;52.710;6.438;2023-02-24T02:45:11;13.18;;;2.25;;
55003;SDS011;40900;52.710;6.438;2023-02-24T02:53:47;7.65;;;2.08;;
55003;SDS011;40900;52.710;6.438;2023-02-24T02:56:15;10.95;;;2.10;;
55003;SDS011;40900;52.710;6.438;2023-02-24T02:58:44;12.80;;;2.50;;
55003;SDS011;40900;52.710;6.438;2023-02-24T03:01:14;10.02;;;1.65;;
55003;SDS011;40900;52.710;6.438;2023-02-24T03:03:43;10.60;;;2.22;;
55003;SDS011;40900;52.710;6.438;2023-02-24T03:06:18;8.77;;;1.98;;
55003;SDS011;40900;52.710;6.438;2023-02-24T03:08:52;15.00;;;2.85;;
55003;SDS011;40900;52.710;6.438;2023-02-24T03:11:19;9.35;;;1.90;;
55003;SDS011;40900;52.710;6.438;2023-02-24T03:13:47;10.13;;;2.40;;
55003;SDS011;40900;52.710;6.438;2023-02-24T03:16:18;8.25;;;1.80;;
55003;SDS011;40900;52.710;6.438;2023-02-24T03:18:55;7.70;;;2.00;;
55003;SDS011;40900;52.710;6.438;2023-02-24T03:21:29;7.90;;;2.05;;
55003;SDS011;40900;52.710;6.438;2023-02-24T03:23:59;8.60;;;2.05;;
55003;SDS011;40900;52.710;6.438;2023-02-24T03:26:31;12.55;;;2.30;;
55003;SDS011;40900;52.710;6.438;2023-02-24T03:29:28;7.38;;;2.83;;
55003;SDS011;40900;52.710;6.438;2023-02-24T03:32:05;19.33;;;2.80;;
55003;SDS011;40900;52.710;6.438;2023-02-24T03:37:33;9.90;;;2.20;;
55003;SDS011;40900;52.710;6.438;2023-02-24T03:40:02;8.85;;;2.15;;
55003;SDS011;40900;52.710;6.438;2023-02-24T03:42:58;12.60;;;2.33;;
55003;SDS011;40900;52.710;6.438;2023-02-24T03:45:33;12.75;;;2.08;;
55003;SDS011;40900;52.710;6.438;2023-02-24T03:48:03;11.32;;;2.20;;
55003;SDS011;40900;52.710;6.438;2023-02-24T03:50:31;13.50;;;2.20;;
55003;SDS011;40900;52.710;6.438;2023-02-24T04:03:32;10.13;;;1.95;;
55003;SDS011;40900;52.710;6.438;2023-02-24T04:06:43;12.73;;;2.00;;
55003;SDS011;40900;52.710;6.438;2023-02-24T04:14:48;7.65;;;1.92;;
55003;SDS011;40900;52.710;6.438;2023-02-24T04:17:25;9.80;;;2.28;;
55003;SDS011;40900;52.710;6.438;2023-02-24T04:19:56;11.30;;;2.13;;
55003;SDS011;40900;52.710;6.438;2023-02-24T04:22:25;15.35;;;1.67;;
55003;SDS011;40900;52.710;6.438;2023-02-24T04:24:56;9.88;;;1.80;;
55003;SDS011;40900;52.710;6.438;2023-02-24T04:27:25;12.43;;;2.40;;
55003;SDS011;40900;52.710;6.438;2023-02-24T04:29:53;13.30;;;3.20;;
55003;SDS011;40900;52.710;6.438;2023-02-24T04:32:25;8.73;;;2.10;;
55003;SDS011;40900;52.710;6.438;2023-02-24T04:34:59;8.88;;;2.10;;
55003;SDS011;40900;52.710;6.438;2023-02-24T04:37:27;17.02;;;2.08;;
55003;SDS011;40900;52.710;6.438;2023-02-24T04:39:58;11.07;;;2.05;;
55003;SDS011;40900;52.710;6.438;2023-02-24T04:42:24;10.55;;;2.10;;
55003;SDS011;40900;52.710;6.438;2023-02-24T04:44:50;9.52;;;2.20;;
55003;SDS011;40900;52.710;6.438;2023-02-24T04:47:17;10.32;;;2.03;;
55003;SDS011;40900;52.710;6.438;2023-02-24T04:49:44;21.75;;;3.00;;
55003;SDS011;40900;52.710;6.438;2023-02-24T04:52:09;9.25;;;1.90;;
55003;SDS011;40900;52.710;6.438;2023-02-24T04:54:36;8.60;;;1.80;;
55003;SDS011;40900;52.710;6.438;2023-02-24T04:57:02;11.85;;;2.20;;
55003;SDS011;40900;52.710;6.438;2023-02-24T04:59:30;18.88;;;2.28;;
55003;SDS011;40900;52.710;6.438;2023-02-24T05:01:56;16.92;;;3.35;;
55003;SDS011;40900;52.710;6.438;2023-02-24T05:04:26;15.50;;;2.90;;
55003;SDS011;40900;52.710;6.438;2023-02-24T05:06:54;17.17;;;2.13;;
55003;SDS011;40900;52.710;6.438;2023-02-24T05:09:21;13.23;;;2.42;;
55003;SDS011;40900;52.710;6.438;2023-02-24T05:11:48;8.20;;;2.15;;
55003;SDS011;40900;52.710;6.438;2023-02-24T05:14:16;10.82;;;2.03;;
55003;SDS011;40900;52.710;6.438;2023-02-24T05:16:45;12.65;;;2.63;;
55003;SDS011;40900;52.710;6.438;2023-02-24T05:19:13;13.25;;;2.33;;
55003;SDS011;40900;52.710;6.438;2023-02-24T05:21:59;10.98;;;2.30;;
55003;SDS011;40900;52.710;6.438;2023-02-24T05:24:27;10.98;;;2.40;;
55003;SDS011;40900;52.710;6.438;2023-02-24T05:26:55;10.45;;;2.20;;
55003;SDS011;40900;52.710;6.438;2023-02-24T05:29:27;12.55;;;2.30;;
55003;SDS011;40900;52.710;6.438;2023-02-24T05:31:57;8.27;;;1.98;;
55003;SDS011;40900;52.710;6.438;2023-02-24T05:34:31;16.50;;;3.13;;
55003;SDS011;40900;52.710;6.438;2023-02-24T05:36:58;10.18;;;2.10;;
55003;SDS011;40900;52.710;6.438;2023-02-24T05:39:25;13.25;;;2.33;;
55003;SDS011;40900;52.710;6.438;2023-02-24T05:41:53;13.80;;;2.03;;
55003;SDS011;40900;52.710;6.438;2023-02-24T05:44:21;11.38;;;2.00;;
55003;SDS011;40900;52.710;6.438;2023-02-24T05:46:51;8.90;;;2.58;;
55003;SDS011;40900;52.710;6.438;2023-02-24T05:49:28;13.98;;;2.42;;
55003;SDS011;40900;52.710;6.438;2023-02-24T05:51:58;14.00;;;2.88;;
55003;SDS011;40900;52.710;6.438;2023-02-24T05:54:27;12.35;;;2.10;;
55003;SDS011;40900;52.710;6.438;2023-02-24T05:56:58;12.15;;;2.22;;
55003;SDS011;40900;52.710;6.438;2023-02-24T05:59:27;17.08;;;2.85;;
55003;SDS011;40900;52.710;6.438;2023-02-24T06:02:01;13.73;;;3.35;;
55003;SDS011;40900;52.710;6.438;2023-02-24T06:04:36;11.68;;;2.80;;
55003;SDS011;40900;52.710;6.438;2023-02-24T06:07:05;9.15;;;2.40;;
55003;SDS011;40900;52.710;6.438;2023-02-24T06:09:43;13.88;;;2.30;;
55003;SDS011;40900;52.710;6.438;2023-02-24T06:12:10;10.10;;;2.40;;
55003;SDS011;40900;52.710;6.438;2023-02-24T06:14:38;10.45;;;2.13;;
55003;SDS011;40900;52.710;6.438;2023-02-24T06:17:04;13.85;;;2.83;;
55003;SDS011;40900;52.710;6.438;2023-02-24T06:19:30;13.32;;;2.67;;
55003;SDS011;40900;52.710;6.438;2023-02-24T06:21:57;16.17;;;3.08;;
55003;SDS011;40900;52.710;6.438;2023-02-24T06:24:26;14.88;;;2.75;;
55003;SDS011;40900;52.710;6.438;2023-02-24T06:26:57;14.73;;;2.53;;
55003;SDS011;40900;52.710;6.438;2023-02-24T06:29:27;10.43;;;2.45;;
55003;SDS011;40900;52.710;6.438;2023-02-24T06:31:54;10.55;;;2.50;;
55003;SDS011;40900;52.710;6.438;2023-02-24T06:34:24;13.38;;;3.05;;
55003;SDS011;40900;52.710;6.438;2023-02-24T06:36:51;13.15;;;2.72;;
55003;SDS011;40900;52.710;6.438;2023-02-24T06:39:18;9.80;;;2.50;;
55003;SDS011;40900;52.710;6.438;2023-02-24T06:41:44;11.63;;;2.95;;
55003;SDS011;40900;52.710;6.438;2023-02-24T06:44:13;18.00;;;3.85;;
55003;SDS011;40900;52.710;6.438;2023-02-24T06:46:39;11.48;;;2.40;;
55003;SDS011;40900;52.710;6.438;2023-02-24T06:49:05;14.82;;;2.65;;
55003;SDS011;40900;52.710;6.438;2023-02-24T06:51:33;7.78;;;2.55;;
55003;SDS011;40900;52.710;6.438;2023-02-24T06:53:59;14.52;;;2.47;;
55003;SDS011;40900;52.710;6.438;2023-02-24T06:56:25;10.77;;;2.58;;
55003;SDS011;40900;52.710;6.438;2023-02-24T06:58:53;15.55;;;2.85;;
55003;SDS011;40900;52.710;6.438;2023-02-24T07:01:24;11.90;;;2.67;;
55003;SDS011;40900;52.710;6.438;2023-02-24T07:03:55;14.15;;;3.22;;
55003;SDS011;40900;52.710;6.438;2023-02-24T07:06:51;12.07;;;2.58;;
55003;SDS011;40900;52.710;6.438;2023-02-24T07:09:24;13.20;;;2.63;;
55003;SDS011;40900;52.710;6.438;2023-02-24T07:11:52;15.43;;;2.72;;
55003;SDS011;40900;52.710;6.438;2023-02-24T07:14:24;15.10;;;2.70;;
55003;SDS011;40900;52.710;6.438;2023-02-24T07:16:52;17.67;;;2.83;;
55003;SDS011;40900;52.710;6.438;2023-02-24T07:19:19;13.63;;;3.60;;
55003;SDS011;40900;52.710;6.438;2023-02-24T07:21:49;15.75;;;3.25;;
55003;SDS011;40900;52.710;6.438;2023-02-24T07:24:24;16.42;;;3.33;;
55003;SDS011;40900;52.710;6.438;2023-02-24T07:27:01;12.38;;;3.33;;
55003;SDS011;40900;52.710;6.438;2023-02-24T07:29:29;14.50;;;3.85;;
55003;SDS011;40900;52.710;6.438;2023-02-24T07:31:58;18.55;;;3.13;;
55003;SDS011;40900;52.710;6.438;2023-02-24T07:34:30;14.18;;;3.17;;
55003;SDS011;40900;52.710;6.438;2023-02-24T07:36:58;16.85;;;3.33;;
55003;SDS011;40900;52.710;6.438;2023-02-24T07:39:26;10.77;;;3.22;;
55003;SDS011;40900;52.710;6.438;2023-02-24T07:41:53;11.80;;;3.08;;
55003;SDS011;40900;52.710;6.438;2023-02-24T07:44:20;16.13;;;4.00;;
55003;SDS011;40900;52.710;6.438;2023-02-24T07:46:48;16.92;;;3.33;;
55003;SDS011;40900;52.710;6.438;2023-02-24T07:49:15;15.43;;;3.95;;
55003;SDS011;40900;52.710;6.438;2023-02-24T07:51:44;11.43;;;3.88;;
55003;SDS011;40900;52.710;6.438;2023-02-24T07:54:12;17.80;;;4.80;;
55003;SDS011;40900;52.710;6.438;2023-02-24T07:56:39;18.33;;;3.67;;
55003;SDS011;40900;52.710;6.438;2023-02-24T07:59:20;16.60;;;4.40;;
55003;SDS011;40900;52.710;6.438;2023-02-24T08:01:47;16.98;;;4.43;;
55003;SDS011;40900;52.710;6.438;2023-02-24T08:04:17;15.07;;;3.75;;
55003;SDS011;40900;52.710;6.438;2023-02-24T08:06:44;12.45;;;4.50;;
55003;SDS011;40900;52.710;6.438;2023-02-24T08:09:18;17.45;;;3.97;;
55003;SDS011;40900;52.710;6.438;2023-02-24T08:14:19;18.92;;;5.03;;
55003;SDS011;40900;52.710;6.438;2023-02-24T08:16:51;18.05;;;4.40;;
55003;SDS011;40900;52.710;6.438;2023-02-24T08:19:24;17.83;;;4.65;;
55003;SDS011;40900;52.710;6.438;2023-02-24T08:22:04;17.08;;;5.60;;
55003;SDS011;40900;52.710;6.438;2023-02-24T08:24:55;19.73;;;4.75;;
55003;SDS011;40900;52.710;6.438;2023-02-24T08:27:30;23.70;;;4.70;;
55003;SDS011;40900;52.710;6.438;2023-02-24T08:29:57;17.17;;;4.43;;
55003;SDS011;40900;52.710;6.438;2023-02-24T08:32:35;15.85;;;4.45;;
55003;SDS011;40900;52.710;6.438;2023-02-24T08:35:14;17.50;;;4.43;;
55003;SDS011;40900;52.710;6.438;2023-02-24T08:37:42;21.48;;;4.95;;
55003;SDS011;40900;52.710;6.438;2023-02-24T08:40:20;17.83;;;5.32;;
55003;SDS011;40900;52.710;6.438;2023-02-24T08:45:49;15.10;;;4.97;;
55003;SDS011;40900;52.710;6.438;2023-02-24T08:48:27;19.20;;;5.13;;
55003;SDS011;40900;52.710;6.438;2023-02-24T08:51:23;22.63;;;5.25;;
55003;SDS011;40900;52.710;6.438;2023-02-24T08:53:53;21.48;;;5.63;;
55003;SDS011;40900;52.710;6.438;2023-02-24T08:56:22;27.50;;;5.82;;
55003;SDS011;40900;52.710;6.438;2023-02-24T08:58:52;20.42;;;6.40;;
55003;SDS011;40900;52.710;6.438;2023-02-24T09:01:24;21.23;;;6.03;;
55003;SDS011;40900;52.710;6.438;2023-02-24T09:03:55;34.30;;;8.38;;
55003;SDS011;40900;52.710;6.438;2023-02-24T09:06:24;27.27;;;7.15;;
55003;SDS011;40900;52.710;6.438;2023-02-24T09:09:15;28.10;;;8.50;;
55003;SDS011;40900;52.710;6.438;2023-02-24T09:11:50;25.33;;;6.85;;
55003;SDS011;40900;52.710;6.438;2023-02-24T09:14:21;33.38;;;8.02;;
55003;SDS011;40900;52.710;6.438;2023-02-24T09:16:51;26.42;;;8.75;;
55003;SDS011;40900;52.710;6.438;2023-02-24T09:22:24;29.63;;;7.88;;
55003;SDS011;40900;52.710;6.438;2023-02-24T09:25:13;30.70;;;8.40;;
55003;SDS011;40900;52.710;6.438;2023-02-24T09:27:49;30.30;;;8.60;;
55003;SDS011;40900;52.710;6.438;2023-02-24T09:30:32;30.92;;;8.63;;
55003;SDS011;40900;52.710;6.438;2023-02-24T09:35:44;29.23;;;9.38;;
55003;SDS011;40900;52.710;6.438;2023-02-24T09:38:11;27.30;;;9.98;;
55003;SDS011;40900;52.710;6.438;2023-02-24T09:40:41;26.48;;;8.98;;
55003;SDS011;40900;52.710;6.438;2023-02-24T09:43:24;27.65;;;9.98;;
55003;SDS011;40900;52.710;6.438;2023-02-24T09:46:01;20.52;;;10.05;;
55003;SDS011;40900;52.710;6.438;2023-02-24T09:48:47;25.02;;;9.38;;
55003;SDS011;40900;52.710;6.438;2023-02-24T09:51:19;27.42;;;10.20;;
55003;SDS011;40900;52.710;6.438;2023-02-24T09:53:50;23.27;;;10.15;;
55003;SDS011;40900;52.710;6.438;2023-02-24T09:56:37;28.27;;;10.38;;
55003;SDS011;40900;52.710;6.438;2023-02-24T09:59:23;27.42;;;10.63;;
55003;SDS011;40900;52.710;6.438;2023-02-24T10:02:01;32.53;;;11.77;;
55003;SDS011;40900;52.710;6.438;2023-02-24T10:05:03;28.95;;;10.27;;
55003;SDS011;40900;52.710;6.438;2023-02-24T10:07:39;28.33;;;10.07;;
55003;SDS011;40900;52.710;6.438;2023-02-24T10:10:25;28.63;;;11.50;;
55003;SDS011;40900;52.710;6.438;2023-02-24T10:12:56;36.53;;;13.10;;
55003;SDS011;40900;52.710;6.438;2023-02-24T10:15:33;26.88;;;11.93;;
55003;SDS011;40900;52.710;6.438;2023-02-24T10:21:04;27.83;;;12.02;;
55003;SDS011;40900;52.710;6.438;2023-02-24T10:23:40;39.03;;;13.27;;
55003;SDS011;40900;52.710;6.438;2023-02-24T10:26:12;27.75;;;12.52;;
55003;SDS011;40900;52.710;6.438;2023-02-24T10:29:14;26.50;;;12.90;;
55003;SDS011;40900;52.710;6.438;2023-02-24T10:34:30;26.30;;;14.82;;
55003;SDS011;40900;52.710;6.438;2023-02-24T10:37:10;25.77;;;14.13;;
55003;SDS011;40900;52.710;6.438;2023-02-24T10:39:38;23.23;;;14.15;;
55003;SDS011;40900;52.710;6.438;2023-02-24T10:42:08;25.63;;;14.25;;
55003;SDS011;40900;52.710;6.438;2023-02-24T10:44:43;29.23;;;13.55;;
55003;SDS011;40900;52.710;6.438;2023-02-24T10:47:27;26.15;;;15.15;;
55003;SDS011;40900;52.710;6.438;2023-02-24T10:49:59;22.92;;;12.85;;
55003;SDS011;40900;52.710;6.438;2023-02-24T10:58:03;30.27;;;14.32;;
55003;SDS011;40900;52.710;6.438;2023-02-24T11:00:46;25.17;;;14.18;;
55003;SDS011;40900;52.710;6.438;2023-02-24T11:03:25;30.45;;;11.10;;
55003;SDS011;40900;52.710;6.438;2023-02-24T11:06:23;31.55;;;10.65;;
55003;SDS011;40900;52.710;6.438;2023-02-24T11:09:12;30.77;;;12.33;;
55003;SDS011;40900;52.710;6.438;2023-02-24T11:11:52;28.90;;;11.43;;
55003;SDS011;40900;52.710;6.438;2023-02-24T11:14:50;29.05;;;10.60;;
55003;SDS011;40900;52.710;6.438;2023-02-24T11:20:40;27.00;;;7.80;;
55003;SDS011;40900;52.710;6.438;2023-02-24T11:23:11;27.58;;;7.97;;
55003;SDS011;40900;52.710;6.438;2023-02-24T11:25:41;25.30;;;8.57;;
55003;SDS011;40900;52.710;6.438;2023-02-24T11:30:59;28.25;;;6.45;;
55003;SDS011;40900;52.710;6.438;2023-02-24T11:33:50;26.13;;;5.57;;
55003;SDS011;40900;52.710;6.438;2023-02-24T11:42:23;33.58;;;5.55;;
55003;SDS011;40900;52.710;6.438;2023-02-24T11:45:00;30.17;;;5.45;;
55003;SDS011;40900;52.710;6.438;2023-02-24T11:47:47;26.38;;;5.35;;
55003;SDS011;40900;52.710;6.438;2023-02-24T11:52:55;43.53;;;5.97;;
55003;SDS011;40900;52.710;6.438;2023-02-24T11:55:32;38.85;;;7.38;;
55003;SDS011;40900;52.710;6.438;2023-02-24T11:58:05;38.72;;;6.00;;
55003;SDS011;40900;52.710;6.438;2023-02-24T12:00:38;37.40;;;6.28;;
55003;SDS011;40900;52.710;6.438;2023-02-24T12:03:13;37.25;;;6.15;;
55003;SDS011;40900;52.710;6.438;2023-02-24T12:05:48;39.05;;;6.28;;
55003;SDS011;40900;52.710;6.438;2023-02-24T12:10:47;33.00;;;5.45;;
55003;SDS011;40900;52.710;6.438;2023-02-24T12:16:08;33.15;;;5.70;;
55003;SDS011;40900;52.710;6.438;2023-02-24T12:18:40;39.28;;;6.47;;
55003;SDS011;40900;52.710;6.438;2023-02-24T12:21:15;37.00;;;5.80;;
55003;SDS011;40900;52.710;6.438;2023-02-24T12:23:47;34.85;;;6.45;;
55003;SDS011;40900;52.710;6.438;2023-02-24T12:34:34;30.80;;;7.18;;
55003;SDS011;40900;52.710;6.438;2023-02-24T12:50:36;27.00;;;5.00;;
55003;SDS011;40900;52.710;6.438;2023-02-24T12:55:59;24.65;;;5.47;;
55003;SDS011;40900;52.710;6.438;2023-02-24T12:58:49;21.13;;;4.15;;
55003;SDS011;40900;52.710;6.438;2023-02-24T13:01:33;19.80;;;3.25;;
55003;SDS011;40900;52.710;6.438;2023-02-24T13:10:03;20.98;;;4.07;;
55003;SDS011;40900;52.710;6.438;2023-02-24T13:12:58;15.15;;;3.63;;
55003;SDS011;40900;52.710;6.438;2023-02-24T13:15:28;23.17;;;4.03;;
55003;SDS011;40900;52.710;6.438;2023-02-24T13:17:57;24.60;;;3.88;;
55003;SDS011;40900;52.710;6.438;2023-02-24T13:20:30;19.70;;;3.35;;
55003;SDS011;40900;52.710;6.438;2023-02-24T13:22:56;21.63;;;3.72;;
55003;SDS011;40900;52.710;6.438;2023-02-24T13:25:32;20.20;;;3.83;;
55003;SDS011;40900;52.710;6.438;2023-02-24T13:28:02;21.63;;;4.18;;
55003;SDS011;40900;52.710;6.438;2023-02-24T13:35:28;21.35;;;3.45;;
55003;SDS011;40900;52.710;6.438;2023-02-24T13:38:06;19.80;;;3.75;;
55003;SDS011;40900;52.710;6.438;2023-02-24T13:40:47;26.55;;;4.07;;
55003;SDS011;40900;52.710;6.438;2023-02-24T13:43:21;20.50;;;3.90;;
55003;SDS011;40900;52.710;6.438;2023-02-24T13:45:53;15.82;;;3.42;;
55003;SDS011;40900;52.710;6.438;2023-02-24T13:56:46;15.20;;;3.38;;
55003;SDS011;40900;52.710;6.438;2023-02-24T14:02:13;7.65;;;1.92;;
55003;SDS011;40900;52.710;6.438;2023-02-24T14:04:55;8.25;;;1.85;;
55003;SDS011;40900;52.710;6.438;2023-02-24T14:07:32;9.43;;;1.33;;
55003;SDS011;40900;52.710;6.438;2023-02-24T14:10:13;9.13;;;1.95;;
55003;SDS011;40900;52.710;6.438;2023-02-24T14:12:43;10.48;;;1.90;;
55003;SDS011;40900;52.710;6.438;2023-02-24T14:15:13;6.38;;;1.52;;
55003;SDS011;40900;52.710;6.438;2023-02-24T14:17:52;7.57;;;1.50;;
55003;SDS011;40900;52.710;6.438;2023-02-24T14:25:18;5.10;;;1.20;;
55003;SDS011;40900;52.710;6.438;2023-02-24T14:27:47;6.90;;;1.50;;
55003;SDS011;40900;52.710;6.438;2023-02-24T14:32:58;8.20;;;1.65;;
55003;SDS011;40900;52.710;6.438;2023-02-24T14:37:56;10.48;;;1.70;;
55003;SDS011;40900;52.710;6.438;2023-02-24T14:40:22;8.02;;;1.55;;
55003;SDS011;40900;52.710;6.438;2023-02-24T14:42:50;10.63;;;1.85;;
55003;SDS011;40900;52.710;6.438;2023-02-24T14:45:18;11.10;;;2.05;;
55003;SDS011;40900;52.710;6.438;2023-02-24T14:47:45;8.05;;;2.00;;
55003;SDS011;40900;52.710;6.438;2023-02-24T14:50:15;11.77;;;1.90;;
55003;SDS011;40900;52.710;6.438;2023-02-24T14:57:54;11.85;;;2.55;;
55003;SDS011;40900;52.710;6.438;2023-02-24T15:00:22;13.95;;;2.42;;
55003;SDS011;40900;52.710;6.438;2023-02-24T15:02:56;12.73;;;2.42;;
55003;SDS011;40900;52.710;6.438;2023-02-24T15:05:46;14.88;;;2.00;;
55003;SDS011;40900;52.710;6.438;2023-02-24T15:10:55;9.35;;;1.88;;
55003;SDS011;40900;52.710;6.438;2023-02-24T15:13:32;6.05;;;1.92;;
55003;SDS011;40900;52.710;6.438;2023-02-24T15:16:06;7.97;;;1.50;;
55003;SDS011;40900;52.710;6.438;2023-02-24T15:18:53;5.37;;;1.50;;
55003;SDS011;40900;52.710;6.438;2023-02-24T15:21:33;7.38;;;1.40;;
55003;SDS011;40900;52.710;6.438;2023-02-24T15:26:53;6.93;;;1.77;;
55003;SDS011;40900;52.710;6.438;2023-02-24T15:29:22;9.60;;;1.58;;
55003;SDS011;40900;52.710;6.438;2023-02-24T15:31:55;8.00;;;1.92;;
55003;SDS011;40900;52.710;6.438;2023-02-24T15:34:25;13.50;;;2.08;;
55003;SDS011;40900;52.710;6.438;2023-02-24T15:36:56;10.43;;;1.90;;
55003;SDS011;40900;52.710;6.438;2023-02-24T15:39:28;15.38;;;2.75;;
55003;SDS011;40900;52.710;6.438;2023-02-24T15:42:12;9.43;;;2.38;;
55003;SDS011;40900;52.710;6.438;2023-02-24T15:47:39;19.30;;;4.07;;
55003;SDS011;40900;52.710;6.438;2023-02-24T15:50:09;14.07;;;2.70;;
55003;SDS011;40900;52.710;6.438;2023-02-24T15:52:36;10.93;;;2.35;;
55003;SDS011;40900;52.710;6.438;2023-02-24T15:55:03;12.25;;;2.22;;
55003;SDS011;40900;52.710;6.438;2023-02-24T15:57:30;15.68;;;2.70;;
55003;SDS011;40900;52.710;6.438;2023-02-24T15:59:56;16.25;;;3.30;;
55003;SDS011;40900;52.710;6.438;2023-02-24T16:02:23;15.30;;;2.55;;
55003;SDS011;40900;52.710;6.438;2023-02-24T16:04:49;15.70;;;3.25;;
55003;SDS011;40900;52.710;6.438;2023-02-24T16:07:35;18.23;;;3.75;;
55003;SDS011;40900;52.710;6.438;2023-02-24T16:10:02;13.95;;;3.20;;
55003;SDS011;40900;52.710;6.438;2023-02-24T16:12:31;14.98;;;3.15;;
55003;SDS011;40900;52.710;6.438;2023-02-24T16:14:59;19.48;;;2.95;;
55003;SDS011;40900;52.710;6.438;2023-02-24T16:19:58;17.40;;;2.67;;
55003;SDS011;40900;52.710;6.438;2023-02-24T16:22:25;10.38;;;2.13;;
55003;SDS011;40900;52.710;6.438;2023-02-24T16:24:51;14.98;;;2.85;;
55003;SDS011;40900;52.710;6.438;2023-02-24T16:27:17;13.82;;;2.83;;
55003;SDS011;40900;52.710;6.438;2023-02-24T16:29:45;14.50;;;2.47;;
55003;SDS011;40900;52.710;6.438;2023-02-24T16:32:11;17.65;;;3.25;;
55003;SDS011;40900;52.710;6.438;2023-02-24T16:34:37;16.15;;;3.15;;
55003;SDS011;40900;52.710;6.438;2023-02-24T16:37:09;18.58;;;2.83;;
55003;SDS011;40900;52.710;6.438;2023-02-24T16:39:40;17.58;;;2.70;;
55003;SDS011;40900;52.710;6.438;2023-02-24T16:42:07;18.95;;;2.72;;
55003;SDS011;40900;52.710;6.438;2023-02-24T16:44:34;16.80;;;3.33;;
55003;SDS011;40900;52.710;6.438;2023-02-24T16:46:59;24.73;;;4.22;;
55003;SDS011;40900;52.710;6.438;2023-02-24T16:49:25;19.33;;;3.38;;
55003;SDS011;40900;52.710;6.438;2023-02-24T16:51:51;17.70;;;3.00;;
55003;SDS011;40900;52.710;6.438;2023-02-24T16:54:17;19.75;;;3.08;;
55003;SDS011;40900;52.710;6.438;2023-02-24T16:56:46;13.70;;;2.90;;
55003;SDS011;40900;52.710;6.438;2023-02-24T16:59:12;23.55;;;3.58;;
55003;SDS011;40900;52.710;6.438;2023-02-24T17:01:37;24.55;;;3.67;;
55003;SDS011;40900;52.710;6.438;2023-02-24T17:04:04;22.70;;;4.10;;
55003;SDS011;40900;52.710;6.438;2023-02-24T17:06:33;26.75;;;3.67;;
55003;SDS011;40900;52.710;6.438;2023-02-24T17:09:00;22.42;;;3.70;;
55003;SDS011;40900;52.710;6.438;2023-02-24T17:11:26;21.38;;;3.83;;
55003;SDS011;40900;52.710;6.438;2023-02-24T17:13:52;18.02;;;3.65;;
55003;SDS011;40900;52.710;6.438;2023-02-24T17:16:19;25.08;;;3.97;;
55003;SDS011;40900;52.710;6.438;2023-02-24T17:18:45;24.02;;;4.18;;
55003;SDS011;40900;52.710;6.438;2023-02-24T17:21:11;21.80;;;3.90;;
55003;SDS011;40900;52.710;6.438;2023-02-24T17:23:39;14.73;;;2.92;;
55003;SDS011;40900;52.710;6.438;2023-02-24T17:26:06;13.50;;;2.75;;
55003;SDS011;40900;52.710;6.438;2023-02-24T17:28:36;16.38;;;2.40;;
55003;SDS011;40900;52.710;6.438;2023-02-24T17:31:02;15.75;;;3.38;;
55003;SDS011;40900;52.710;6.438;2023-02-24T17:33:29;15.70;;;3.28;;
55003;SDS011;40900;52.710;6.438;2023-02-24T17:35:54;14.00;;;3.42;;
55003;SDS011;40900;52.710;6.438;2023-02-24T17:38:20;19.70;;;3.83;;
55003;SDS011;40900;52.710;6.438;2023-02-24T17:40:48;22.45;;;3.80;;
55003;SDS011;40900;52.710;6.438;2023-02-24T17:43:14;21.50;;;5.72;;
55003;SDS011;40900;52.710;6.438;2023-02-24T17:45:40;18.13;;;3.85;;